sensor_id;sensor_type;location;lat;lon;timestamp;P1;durP1;ratioP1;P2;durP2;ratioP2
72761;SDS011;60886;55.034;73.150;2023-05-13T00:00:42;15.85;;;7.72;;
72761;SDS011;60886;55.034;73.150;2023-05-13T00:03:43;14.10;;;7.32;;
72761;SDS011;60886;55.034;73.150;2023-05-13T00:06:48;15.77;;;7.07;;
72761;SDS011;60886;55.034;73.150;2023-05-13T00:09:49;13.13;;;6.63;;
72761;SDS011;60886;55.034;73.150;2023-05-13T00:12:50;12.43;;;5.50;;
72761;SDS011;60886;55.034;73.150;2023-05-13T00:15:52;12.25;;;5.00;;
72761;SDS011;60886;55.034;73.150;2023-05-13T00:18:54;14.87;;;5.13;;
72761;SDS011;60886;55.034;73.150;2023-05-13T00:21:56;11.63;;;4.72;;
72761;SDS011;60886;55.034;73.150;2023-05-13T00:24:57;12.60;;;4.32;;
72761;SDS011;60886;55.034;73.150;2023-05-13T00:27:58;11.00;;;4.30;;
72761;SDS011;60886;55.034;73.150;2023-05-13T00:31:00;11.80;;;4.43;;
72761;SDS011;60886;55.034;73.150;2023-05-13T00:34:01;10.75;;;4.30;;
72761;SDS011;60886;55.034;73.150;2023-05-13T00:37:04;10.00;;;4.57;;
72761;SDS011;60886;55.034;73.150;2023-05-13T00:40:07;10.82;;;4.68;;
72761;SDS011;60886;55.034;73.150;2023-05-13T00:43:24;9.90;;;4.40;;
72761;SDS011;60886;55.034;73.150;2023-05-13T00:46:25;10.77;;;4.75;;
72761;SDS011;60886;55.034;73.150;2023-05-13T00:49:32;10.23;;;4.50;;
72761;SDS011;60886;55.034;73.150;2023-05-13T00:52:35;11.70;;;4.50;;
72761;SDS011;60886;55.034;73.150;2023-05-13T00:55:42;12.17;;;4.57;;
72761;SDS011;60886;55.034;73.150;2023-05-13T00:58:45;13.15;;;4.63;;
72761;SDS011;60886;55.034;73.150;2023-05-13T01:01:59;12.30;;;4.93;;
72761;SDS011;60886;55.034;73.150;2023-05-13T01:09:02;11.00;;;4.70;;
72761;SDS011;60886;55.034;73.150;2023-05-13T01:12:20;11.27;;;4.60;;
72761;SDS011;60886;55.034;73.150;2023-05-13T01:15:56;13.00;;;4.93;;
72761;SDS011;60886;55.034;73.150;2023-05-13T01:19:01;11.23;;;4.70;;
72761;SDS011;60886;55.034;73.150;2023-05-13T01:22:17;13.07;;;4.70;;
72761;SDS011;60886;55.034;73.150;2023-05-13T01:25:18;11.95;;;4.60;;
72761;SDS011;60886;55.034;73.150;2023-05-13T01:28:22;13.25;;;4.40;;
72761;SDS011;60886;55.034;73.150;2023-05-13T01:31:27;11.52;;;4.60;;
72761;SDS011;60886;55.034;73.150;2023-05-13T01:34:29;10.00;;;4.30;;
72761;SDS011;60886;55.034;73.150;2023-05-13T01:37:32;11.48;;;4.45;;
72761;SDS011;60886;55.034;73.150;2023-05-13T01:40:33;9.48;;;4.20;;
72761;SDS011;60886;55.034;73.150;2023-05-13T01:43:39;9.85;;;4.43;;
72761;SDS011;60886;55.034;73.150;2023-05-13T01:46:48;12.28;;;5.47;;
72761;SDS011;60886;55.034;73.150;2023-05-13T01:49:53;12.43;;;5.07;;
72761;SDS011;60886;55.034;73.150;2023-05-13T01:52:55;12.30;;;4.50;;
72761;SDS011;60886;55.034;73.150;2023-05-13T01:55:57;13.65;;;5.15;;
72761;SDS011;60886;55.034;73.150;2023-05-13T01:58:59;11.30;;;4.68;;
72761;SDS011;60886;55.034;73.150;2023-05-13T02:02:00;11.77;;;4.67;;
72761;SDS011;60886;55.034;73.150;2023-05-13T02:05:02;10.73;;;4.78;;
72761;SDS011;60886;55.034;73.150;2023-05-13T02:08:04;9.77;;;4.07;;
72761;SDS011;60886;55.034;73.150;2023-05-13T02:11:07;11.00;;;4.47;;
72761;SDS011;60886;55.034;73.150;2023-05-13T02:14:09;16.05;;;7.75;;
72761;SDS011;60886;55.034;73.150;2023-05-13T02:17:11;12.50;;;4.43;;
72761;SDS011;60886;55.034;73.150;2023-05-13T02:20:13;11.52;;;4.40;;
72761;SDS011;60886;55.034;73.150;2023-05-13T02:23:14;10.90;;;5.60;;
72761;SDS011;60886;55.034;73.150;2023-05-13T02:26:16;12.57;;;4.50;;
72761;SDS011;60886;55.034;73.150;2023-05-13T02:29:18;14.13;;;4.40;;
72761;SDS011;60886;55.034;73.150;2023-05-13T02:32:19;10.10;;;4.10;;
72761;SDS011;60886;55.034;73.150;2023-05-13T02:35:21;9.60;;;4.20;;
72761;SDS011;60886;55.034;73.150;2023-05-13T02:38:24;9.60;;;4.28;;
72761;SDS011;60886;55.034;73.150;2023-05-13T02:41:25;14.40;;;3.93;;
72761;SDS011;60886;55.034;73.150;2023-05-13T02:44:27;12.02;;;4.60;;
72761;SDS011;60886;55.034;73.150;2023-05-13T02:47:29;13.70;;;4.80;;
72761;SDS011;60886;55.034;73.150;2023-05-13T02:50:35;13.13;;;4.73;;
72761;SDS011;60886;55.034;73.150;2023-05-13T02:53:37;19.10;;;5.40;;
72761;SDS011;60886;55.034;73.150;2023-05-13T02:56:48;21.70;;;5.80;;
72761;SDS011;60886;55.034;73.150;2023-05-13T02:59:49;18.87;;;5.53;;
72761;SDS011;60886;55.034;73.150;2023-05-13T03:02:50;18.02;;;5.07;;
72761;SDS011;60886;55.034;73.150;2023-05-13T03:05:52;14.63;;;5.55;;
72761;SDS011;60886;55.034;73.150;2023-05-13T03:08:54;14.13;;;5.50;;
72761;SDS011;60886;55.034;73.150;2023-05-13T03:11:55;14.35;;;5.43;;
72761;SDS011;60886;55.034;73.150;2023-05-13T03:14:57;18.20;;;6.30;;
72761;SDS011;60886;55.034;73.150;2023-05-13T03:17:58;16.10;;;5.63;;
72761;SDS011;60886;55.034;73.150;2023-05-13T03:21:00;13.75;;;5.63;;
72761;SDS011;60886;55.034;73.150;2023-05-13T03:24:03;34.63;;;13.65;;
72761;SDS011;60886;55.034;73.150;2023-05-13T03:27:04;15.80;;;6.10;;
72761;SDS011;60886;55.034;73.150;2023-05-13T03:30:09;17.90;;;5.27;;
72761;SDS011;60886;55.034;73.150;2023-05-13T03:33:31;11.98;;;5.65;;
72761;SDS011;60886;55.034;73.150;2023-05-13T03:36:33;14.37;;;5.20;;
72761;SDS011;60886;55.034;73.150;2023-05-13T03:39:35;14.90;;;6.07;;
72761;SDS011;60886;55.034;73.150;2023-05-13T03:42:37;14.50;;;6.03;;
72761;SDS011;60886;55.034;73.150;2023-05-13T03:45:41;16.35;;;6.00;;
72761;SDS011;60886;55.034;73.150;2023-05-13T03:48:51;15.38;;;6.15;;
72761;SDS011;60886;55.034;73.150;2023-05-13T03:51:55;14.23;;;5.60;;
72761;SDS011;60886;55.034;73.150;2023-05-13T03:54:58;17.53;;;6.20;;
72761;SDS011;60886;55.034;73.150;2023-05-13T03:58:09;17.10;;;6.07;;
72761;SDS011;60886;55.034;73.150;2023-05-13T04:01:12;11.18;;;4.97;;
72761;SDS011;60886;55.034;73.150;2023-05-13T04:04:13;11.70;;;5.33;;
72761;SDS011;60886;55.034;73.150;2023-05-13T04:07:15;12.60;;;5.50;;
72761;SDS011;60886;55.034;73.150;2023-05-13T04:10:16;12.35;;;4.55;;
72761;SDS011;60886;55.034;73.150;2023-05-13T04:13:18;12.70;;;5.60;;
72761;SDS011;60886;55.034;73.150;2023-05-13T04:16:19;12.68;;;5.40;;
72761;SDS011;60886;55.034;73.150;2023-05-13T04:19:21;14.73;;;5.72;;
72761;SDS011;60886;55.034;73.150;2023-05-13T04:22:23;14.00;;;5.53;;
72761;SDS011;60886;55.034;73.150;2023-05-13T04:25:24;12.37;;;5.83;;
72761;SDS011;60886;55.034;73.150;2023-05-13T04:28:27;11.73;;;5.45;;
72761;SDS011;60886;55.034;73.150;2023-05-13T04:31:28;11.57;;;5.53;;
72761;SDS011;60886;55.034;73.150;2023-05-13T04:34:30;17.17;;;5.80;;
72761;SDS011;60886;55.034;73.150;2023-05-13T04:37:32;17.27;;;8.00;;
72761;SDS011;60886;55.034;73.150;2023-05-13T04:40:37;14.30;;;5.28;;
72761;SDS011;60886;55.034;73.150;2023-05-13T04:43:48;12.40;;;5.50;;
72761;SDS011;60886;55.034;73.150;2023-05-13T04:46:50;12.72;;;5.72;;
72761;SDS011;60886;55.034;73.150;2023-05-13T04:49:51;13.02;;;6.07;;
72761;SDS011;60886;55.034;73.150;2023-05-13T04:52:53;11.17;;;5.10;;
72761;SDS011;60886;55.034;73.150;2023-05-13T04:55:57;14.73;;;5.85;;
72761;SDS011;60886;55.034;73.150;2023-05-13T04:59:02;11.15;;;5.55;;
72761;SDS011;60886;55.034;73.150;2023-05-13T05:02:04;12.53;;;5.07;;
72761;SDS011;60886;55.034;73.150;2023-05-13T05:05:05;14.40;;;5.70;;
72761;SDS011;60886;55.034;73.150;2023-05-13T05:08:08;12.77;;;5.80;;
72761;SDS011;60886;55.034;73.150;2023-05-13T05:11:11;15.10;;;6.03;;
72761;SDS011;60886;55.034;73.150;2023-05-13T05:14:12;12.40;;;5.17;;
72761;SDS011;60886;55.034;73.150;2023-05-13T05:17:14;12.38;;;5.30;;
72761;SDS011;60886;55.034;73.150;2023-05-13T05:20:16;13.60;;;5.30;;
72761;SDS011;60886;55.034;73.150;2023-05-13T05:23:20;12.13;;;5.43;;
72761;SDS011;60886;55.034;73.150;2023-05-13T05:26:23;14.38;;;5.88;;
72761;SDS011;60886;55.034;73.150;2023-05-13T05:29:24;12.27;;;5.80;;
72761;SDS011;60886;55.034;73.150;2023-05-13T05:32:26;14.20;;;5.87;;
72761;SDS011;60886;55.034;73.150;2023-05-13T05:35:27;11.80;;;5.65;;
72761;SDS011;60886;55.034;73.150;2023-05-13T05:38:30;11.63;;;6.03;;
72761;SDS011;60886;55.034;73.150;2023-05-13T05:41:33;12.13;;;5.82;;
72761;SDS011;60886;55.034;73.150;2023-05-13T05:44:35;12.27;;;6.50;;
72761;SDS011;60886;55.034;73.150;2023-05-13T05:47:37;13.52;;;5.50;;
72761;SDS011;60886;55.034;73.150;2023-05-13T05:50:39;12.00;;;5.85;;
72761;SDS011;60886;55.034;73.150;2023-05-13T05:53:43;12.93;;;5.40;;
72761;SDS011;60886;55.034;73.150;2023-05-13T05:56:47;11.50;;;5.65;;
72761;SDS011;60886;55.034;73.150;2023-05-13T05:59:49;12.60;;;5.97;;
72761;SDS011;60886;55.034;73.150;2023-05-13T06:02:51;15.40;;;5.90;;
72761;SDS011;60886;55.034;73.150;2023-05-13T06:05:53;13.80;;;5.78;;
72761;SDS011;60886;55.034;73.150;2023-05-13T06:08:55;10.73;;;5.40;;
72761;SDS011;60886;55.034;73.150;2023-05-13T06:11:57;14.20;;;5.50;;
72761;SDS011;60886;55.034;73.150;2023-05-13T06:14:59;14.05;;;6.00;;
72761;SDS011;60886;55.034;73.150;2023-05-13T06:18:01;12.33;;;5.77;;
72761;SDS011;60886;55.034;73.150;2023-05-13T06:21:07;20.80;;;11.48;;
72761;SDS011;60886;55.034;73.150;2023-05-13T06:24:09;13.47;;;6.67;;
72761;SDS011;60886;55.034;73.150;2023-05-13T06:27:11;12.73;;;6.07;;
72761;SDS011;60886;55.034;73.150;2023-05-13T06:30:13;13.13;;;5.28;;
72761;SDS011;60886;55.034;73.150;2023-05-13T06:33:16;11.67;;;5.73;;
72761;SDS011;60886;55.034;73.150;2023-05-13T06:36:18;12.73;;;5.35;;
72761;SDS011;60886;55.034;73.150;2023-05-13T06:39:20;12.33;;;5.87;;
72761;SDS011;60886;55.034;73.150;2023-05-13T06:42:22;14.73;;;5.60;;
72761;SDS011;60886;55.034;73.150;2023-05-13T06:45:31;13.07;;;5.88;;
72761;SDS011;60886;55.034;73.150;2023-05-13T06:48:34;15.40;;;6.00;;
72761;SDS011;60886;55.034;73.150;2023-05-13T06:51:47;13.27;;;6.22;;
72761;SDS011;60886;55.034;73.150;2023-05-13T06:54:49;10.90;;;5.50;;
72761;SDS011;60886;55.034;73.150;2023-05-13T06:57:51;16.02;;;6.20;;
72761;SDS011;60886;55.034;73.150;2023-05-13T07:00:52;14.25;;;5.82;;
72761;SDS011;60886;55.034;73.150;2023-05-13T07:03:54;12.57;;;5.97;;
72761;SDS011;60886;55.034;73.150;2023-05-13T07:06:56;13.02;;;6.05;;
72761;SDS011;60886;55.034;73.150;2023-05-13T07:09:57;15.77;;;5.38;;
72761;SDS011;60886;55.034;73.150;2023-05-13T07:12:59;13.63;;;5.90;;
72761;SDS011;60886;55.034;73.150;2023-05-13T07:16:02;13.40;;;5.38;;
72761;SDS011;60886;55.034;73.150;2023-05-13T07:19:03;11.70;;;5.60;;
72761;SDS011;60886;55.034;73.150;2023-05-13T07:22:05;13.73;;;5.00;;
72761;SDS011;60886;55.034;73.150;2023-05-13T07:25:07;10.38;;;4.60;;
72761;SDS011;60886;55.034;73.150;2023-05-13T07:28:09;11.53;;;5.10;;
72761;SDS011;60886;55.034;73.150;2023-05-13T07:31:11;11.35;;;4.72;;
72761;SDS011;60886;55.034;73.150;2023-05-13T07:34:12;14.73;;;5.07;;
72761;SDS011;60886;55.034;73.150;2023-05-13T07:37:14;13.77;;;5.30;;
72761;SDS011;60886;55.034;73.150;2023-05-13T07:40:16;10.98;;;5.40;;
72761;SDS011;60886;55.034;73.150;2023-05-13T07:43:18;13.33;;;5.20;;
72761;SDS011;60886;55.034;73.150;2023-05-13T07:46:24;11.50;;;4.90;;
72761;SDS011;60886;55.034;73.150;2023-05-13T07:49:26;11.00;;;4.47;;
72761;SDS011;60886;55.034;73.150;2023-05-13T07:52:27;10.45;;;4.47;;
72761;SDS011;60886;55.034;73.150;2023-05-13T07:55:29;10.73;;;4.30;;
72761;SDS011;60886;55.034;73.150;2023-05-13T07:58:31;10.88;;;4.43;;
72761;SDS011;60886;55.034;73.150;2023-05-13T08:01:32;11.73;;;4.23;;
72761;SDS011;60886;55.034;73.150;2023-05-13T08:04:34;12.95;;;4.32;;
72761;SDS011;60886;55.034;73.150;2023-05-13T08:07:35;10.25;;;3.78;;
72761;SDS011;60886;55.034;73.150;2023-05-13T08:10:37;10.67;;;4.00;;
72761;SDS011;60886;55.034;73.150;2023-05-13T08:13:39;14.07;;;4.10;;
72761;SDS011;60886;55.034;73.150;2023-05-13T08:16:47;11.17;;;4.08;;
72761;SDS011;60886;55.034;73.150;2023-05-13T08:19:49;14.05;;;4.68;;
72761;SDS011;60886;55.034;73.150;2023-05-13T08:22:50;10.02;;;3.80;;
72761;SDS011;60886;55.034;73.150;2023-05-13T08:25:52;10.55;;;4.07;;
72761;SDS011;60886;55.034;73.150;2023-05-13T08:28:53;9.33;;;3.63;;
72761;SDS011;60886;55.034;73.150;2023-05-13T08:31:56;14.37;;;4.30;;
72761;SDS011;60886;55.034;73.150;2023-05-13T08:34:58;9.15;;;3.60;;
72761;SDS011;60886;55.034;73.150;2023-05-13T08:38:00;8.47;;;3.63;;
72761;SDS011;60886;55.034;73.150;2023-05-13T08:41:05;10.00;;;3.57;;
72761;SDS011;60886;55.034;73.150;2023-05-13T08:44:06;10.43;;;3.90;;
72761;SDS011;60886;55.034;73.150;2023-05-13T08:47:15;11.47;;;3.80;;
72761;SDS011;60886;55.034;73.150;2023-05-13T08:50:32;9.48;;;3.67;;
72761;SDS011;60886;55.034;73.150;2023-05-13T08:53:34;15.52;;;3.90;;
72761;SDS011;60886;55.034;73.150;2023-05-13T08:56:48;12.13;;;3.54;;
72761;SDS011;60886;55.034;73.150;2023-05-13T08:59:50;9.98;;;3.42;;
72761;SDS011;60886;55.034;73.150;2023-05-13T09:02:51;8.33;;;3.50;;
72761;SDS011;60886;55.034;73.150;2023-05-13T09:05:53;11.73;;;3.70;;
72761;SDS011;60886;55.034;73.150;2023-05-13T09:08:54;10.20;;;3.50;;
72761;SDS011;60886;55.034;73.150;2023-05-13T09:11:56;8.77;;;3.27;;
72761;SDS011;60886;55.034;73.150;2023-05-13T09:14:57;9.25;;;3.78;;
72761;SDS011;60886;55.034;73.150;2023-05-13T09:18:03;11.63;;;3.97;;
72761;SDS011;60886;55.034;73.150;2023-05-13T09:21:22;12.05;;;4.07;;
72761;SDS011;60886;55.034;73.150;2023-05-13T09:24:24;11.73;;;3.75;;
72761;SDS011;60886;55.034;73.150;2023-05-13T09:27:36;11.70;;;4.32;;
72761;SDS011;60886;55.034;73.150;2023-05-13T09:30:39;11.60;;;4.27;;
72761;SDS011;60886;55.034;73.150;2023-05-13T09:33:50;13.05;;;4.13;;
72761;SDS011;60886;55.034;73.150;2023-05-13T09:37:00;12.35;;;4.50;;
72761;SDS011;60886;55.034;73.150;2023-05-13T09:40:01;17.42;;;5.07;;
72761;SDS011;60886;55.034;73.150;2023-05-13T09:43:04;13.60;;;5.03;;
72761;SDS011;60886;55.034;73.150;2023-05-13T09:46:08;16.77;;;6.87;;
72761;SDS011;60886;55.034;73.150;2023-05-13T09:49:10;12.75;;;5.13;;
72761;SDS011;60886;55.034;73.150;2023-05-13T09:52:12;15.15;;;5.18;;
72761;SDS011;60886;55.034;73.150;2023-05-13T09:55:16;14.50;;;5.32;;
72761;SDS011;60886;55.034;73.150;2023-05-13T09:58:18;14.03;;;5.70;;
72761;SDS011;60886;55.034;73.150;2023-05-13T10:01:20;12.85;;;5.90;;
72761;SDS011;60886;55.034;73.150;2023-05-13T10:04:22;15.60;;;6.47;;
72761;SDS011;60886;55.034;73.150;2023-05-13T10:07:24;14.35;;;6.53;;
72761;SDS011;60886;55.034;73.150;2023-05-13T10:10:29;14.67;;;6.43;;
72761;SDS011;60886;55.034;73.150;2023-05-13T10:13:32;16.88;;;7.68;;
72761;SDS011;60886;55.034;73.150;2023-05-13T10:16:34;16.20;;;8.20;;
72761;SDS011;60886;55.034;73.150;2023-05-13T10:19:36;17.37;;;8.57;;
72761;SDS011;60886;55.034;73.150;2023-05-13T10:22:38;21.57;;;8.73;;
72761;SDS011;60886;55.034;73.150;2023-05-13T10:25:40;19.92;;;8.48;;
72761;SDS011;60886;55.034;73.150;2023-05-13T10:28:43;16.30;;;8.40;;
72761;SDS011;60886;55.034;73.150;2023-05-13T10:31:48;17.13;;;8.07;;
72761;SDS011;60886;55.034;73.150;2023-05-13T10:34:51;17.77;;;7.53;;
72761;SDS011;60886;55.034;73.150;2023-05-13T10:38:01;12.80;;;6.57;;
72761;SDS011;60886;55.034;73.150;2023-05-13T10:41:07;13.77;;;5.60;;
72761;SDS011;60886;55.034;73.150;2023-05-13T10:44:28;12.00;;;5.80;;
72761;SDS011;60886;55.034;73.150;2023-05-13T10:47:32;10.98;;;4.90;;
72761;SDS011;60886;55.034;73.150;2023-05-13T10:50:37;11.77;;;5.10;;
72761;SDS011;60886;55.034;73.150;2023-05-13T10:53:43;11.50;;;3.97;;
72761;SDS011;60886;55.034;73.150;2023-05-13T10:56:57;10.60;;;3.60;;
72761;SDS011;60886;55.034;73.150;2023-05-13T11:00:15;13.77;;;3.50;;
72761;SDS011;60886;55.034;73.150;2023-05-13T11:06:22;9.73;;;3.97;;
72761;SDS011;60886;55.034;73.150;2023-05-13T11:09:29;11.50;;;4.25;;
72761;SDS011;60886;55.034;73.150;2023-05-13T11:12:31;14.57;;;4.67;;
72761;SDS011;60886;55.034;73.150;2023-05-13T11:15:42;15.52;;;6.10;;
72761;SDS011;60886;55.034;73.150;2023-05-13T11:18:49;13.23;;;5.07;;
72761;SDS011;60886;55.034;73.150;2023-05-13T11:21:53;11.06;;;4.47;;
72761;SDS011;60886;55.034;73.150;2023-05-13T11:25:03;6.97;;;1.67;;
72761;SDS011;60886;55.034;73.150;2023-05-13T11:28:06;13.32;;;3.78;;
72761;SDS011;60886;55.034;73.150;2023-05-13T11:31:15;10.20;;;1.65;;
72761;SDS011;60886;55.034;73.150;2023-05-13T11:34:18;6.72;;;1.77;;
72761;SDS011;60886;55.034;73.150;2023-05-13T11:37:20;7.10;;;1.67;;
72761;SDS011;60886;55.034;73.150;2023-05-13T11:40:26;12.50;;;4.55;;
72761;SDS011;60886;55.034;73.150;2023-05-13T11:43:32;7.18;;;1.83;;
72761;SDS011;60886;55.034;73.150;2023-05-13T11:46:35;8.07;;;1.70;;
72761;SDS011;60886;55.034;73.150;2023-05-13T11:49:45;6.25;;;2.15;;
72761;SDS011;60886;55.034;73.150;2023-05-13T11:52:51;5.20;;;1.30;;
72761;SDS011;60886;55.034;73.150;2023-05-13T11:56:07;10.30;;;2.00;;
72761;SDS011;60886;55.034;73.150;2023-05-13T11:59:13;7.40;;;2.17;;
72761;SDS011;60886;55.034;73.150;2023-05-13T12:02:15;11.43;;;2.30;;
72761;SDS011;60886;55.034;73.150;2023-05-13T12:05:25;5.60;;;1.40;;
72761;SDS011;60886;55.034;73.150;2023-05-13T12:08:27;6.03;;;1.60;;
72761;SDS011;60886;55.034;73.150;2023-05-13T12:11:28;5.55;;;1.30;;
72761;SDS011;60886;55.034;73.150;2023-05-13T12:14:30;9.67;;;2.23;;
72761;SDS011;60886;55.034;73.150;2023-05-13T12:17:33;9.07;;;2.13;;
72761;SDS011;60886;55.034;73.150;2023-05-13T12:20:36;8.68;;;2.53;;
72761;SDS011;60886;55.034;73.150;2023-05-13T12:23:38;13.80;;;3.80;;
72761;SDS011;60886;55.034;73.150;2023-05-13T12:26:47;12.58;;;3.72;;
72761;SDS011;60886;55.034;73.150;2023-05-13T12:29:49;12.30;;;3.20;;
72761;SDS011;60886;55.034;73.150;2023-05-13T12:32:57;12.70;;;3.50;;
72761;SDS011;60886;55.034;73.150;2023-05-13T12:36:18;14.13;;;4.22;;
72761;SDS011;60886;55.034;73.150;2023-05-13T12:39:35;10.27;;;2.92;;
72761;SDS011;60886;55.034;73.150;2023-05-13T12:42:37;8.13;;;2.38;;
72761;SDS011;60886;55.034;73.150;2023-05-13T12:45:39;8.10;;;1.80;;
72761;SDS011;60886;55.034;73.150;2023-05-13T12:48:42;11.13;;;2.50;;
72761;SDS011;60886;55.034;73.150;2023-05-13T12:51:47;7.28;;;2.15;;
72761;SDS011;60886;55.034;73.150;2023-05-13T12:54:51;7.60;;;2.30;;
72761;SDS011;60886;55.034;73.150;2023-05-13T12:57:53;10.73;;;3.00;;
72761;SDS011;60886;55.034;73.150;2023-05-13T13:01:02;11.80;;;2.80;;
72761;SDS011;60886;55.034;73.150;2023-05-13T13:04:04;9.43;;;2.30;;
72761;SDS011;60886;55.034;73.150;2023-05-13T13:07:06;10.10;;;3.22;;
72761;SDS011;60886;55.034;73.150;2023-05-13T13:10:11;10.73;;;1.70;;
72761;SDS011;60886;55.034;73.150;2023-05-13T13:13:13;13.10;;;1.90;;
72761;SDS011;60886;55.034;73.150;2023-05-13T13:16:15;12.27;;;2.20;;
72761;SDS011;60886;55.034;73.150;2023-05-13T13:19:16;5.90;;;1.30;;
72761;SDS011;60886;55.034;73.150;2023-05-13T13:22:18;8.80;;;1.40;;
72761;SDS011;60886;55.034;73.150;2023-05-13T13:25:19;8.50;;;1.50;;
72761;SDS011;60886;55.034;73.150;2023-05-13T13:28:21;7.63;;;1.50;;
72761;SDS011;60886;55.034;73.150;2023-05-13T13:31:23;5.75;;;1.48;;
72761;SDS011;60886;55.034;73.150;2023-05-13T13:34:24;7.55;;;2.20;;
72761;SDS011;60886;55.034;73.150;2023-05-13T13:37:26;7.90;;;2.23;;
72761;SDS011;60886;55.034;73.150;2023-05-13T13:40:27;6.18;;;1.50;;
72761;SDS011;60886;55.034;73.150;2023-05-13T13:43:30;5.63;;;1.17;;
72761;SDS011;60886;55.034;73.150;2023-05-13T13:46:32;8.45;;;1.20;;
72761;SDS011;60886;55.034;73.150;2023-05-13T13:49:33;6.68;;;1.48;;
72761;SDS011;60886;55.034;73.150;2023-05-13T13:52:35;7.43;;;1.80;;
72761;SDS011;60886;55.034;73.150;2023-05-13T13:55:36;7.93;;;1.75;;
72761;SDS011;60886;55.034;73.150;2023-05-13T13:58:38;6.77;;;1.40;;
72761;SDS011;60886;55.034;73.150;2023-05-13T14:01:47;6.63;;;1.99;;
72761;SDS011;60886;55.034;73.150;2023-05-13T14:04:49;8.15;;;2.42;;
72761;SDS011;60886;55.034;73.150;2023-05-13T14:07:50;12.17;;;2.10;;
72761;SDS011;60886;55.034;73.150;2023-05-13T14:10:53;6.37;;;1.50;;
72761;SDS011;60886;55.034;73.150;2023-05-13T14:13:55;6.68;;;1.40;;
72761;SDS011;60886;55.034;73.150;2023-05-13T14:16:56;7.43;;;1.93;;
72761;SDS011;60886;55.034;73.150;2023-05-13T14:19:58;7.47;;;2.50;;
72761;SDS011;60886;55.034;73.150;2023-05-13T14:23:00;5.10;;;1.30;;
72761;SDS011;60886;55.034;73.150;2023-05-13T14:26:02;5.13;;;1.40;;
72761;SDS011;60886;55.034;73.150;2023-05-13T14:29:03;6.90;;;1.40;;
72761;SDS011;60886;55.034;73.150;2023-05-13T14:32:05;12.35;;;5.53;;
72761;SDS011;60886;55.034;73.150;2023-05-13T14:35:07;8.83;;;1.87;;
72761;SDS011;60886;55.034;73.150;2023-05-13T14:38:09;4.95;;;1.33;;
72761;SDS011;60886;55.034;73.150;2023-05-13T14:41:10;5.63;;;1.30;;
72761;SDS011;60886;55.034;73.150;2023-05-13T14:44:12;8.20;;;2.23;;
72761;SDS011;60886;55.034;73.150;2023-05-13T14:47:13;6.67;;;1.40;;
72761;SDS011;60886;55.034;73.150;2023-05-13T14:50:16;6.93;;;2.40;;
72761;SDS011;60886;55.034;73.150;2023-05-13T14:53:17;7.45;;;2.22;;
72761;SDS011;60886;55.034;73.150;2023-05-13T14:56:18;7.83;;;2.03;;
72761;SDS011;60886;55.034;73.150;2023-05-13T14:59:20;6.55;;;1.58;;
72761;SDS011;60886;55.034;73.150;2023-05-13T15:02:21;9.43;;;2.07;;
72761;SDS011;60886;55.034;73.150;2023-05-13T15:05:23;7.10;;;1.40;;
72761;SDS011;60886;55.034;73.150;2023-05-13T15:08:26;6.13;;;1.30;;
72761;SDS011;60886;55.034;73.150;2023-05-13T15:11:28;7.55;;;1.63;;
72761;SDS011;60886;55.034;73.150;2023-05-13T15:14:29;8.15;;;1.77;;
72761;SDS011;60886;55.034;73.150;2023-05-13T15:17:30;5.60;;;1.53;;
72761;SDS011;60886;55.034;73.150;2023-05-13T15:20:32;9.80;;;2.92;;
72761;SDS011;60886;55.034;73.150;2023-05-13T15:23:33;7.30;;;1.70;;
72761;SDS011;60886;55.034;73.150;2023-05-13T15:26:35;8.23;;;1.57;;
72761;SDS011;60886;55.034;73.150;2023-05-13T15:29:36;8.52;;;1.65;;
72761;SDS011;60886;55.034;73.150;2023-05-13T15:32:38;9.02;;;2.08;;
72761;SDS011;60886;55.034;73.150;2023-05-13T15:35:39;9.52;;;2.00;;
72761;SDS011;60886;55.034;73.150;2023-05-13T15:38:42;10.07;;;1.63;;
72761;SDS011;60886;55.034;73.150;2023-05-13T15:41:47;6.35;;;1.20;;
72761;SDS011;60886;55.034;73.150;2023-05-13T15:44:49;6.95;;;1.35;;
72761;SDS011;60886;55.034;73.150;2023-05-13T15:47:50;5.45;;;1.30;;
72761;SDS011;60886;55.034;73.150;2023-05-13T15:50:52;5.93;;;1.60;;
72761;SDS011;60886;55.034;73.150;2023-05-13T15:53:54;7.10;;;1.60;;
72761;SDS011;60886;55.034;73.150;2023-05-13T15:56:55;6.27;;;1.40;;
72761;SDS011;60886;55.034;73.150;2023-05-13T15:59:58;10.38;;;1.75;;
72761;SDS011;60886;55.034;73.150;2023-05-13T16:03:00;6.23;;;1.57;;
72761;SDS011;60886;55.034;73.150;2023-05-13T16:06:02;4.93;;;1.20;;
72761;SDS011;60886;55.034;73.150;2023-05-13T16:09:03;10.90;;;1.42;;
72761;SDS011;60886;55.034;73.150;2023-05-13T16:12:05;7.17;;;1.60;;
72761;SDS011;60886;55.034;73.150;2023-05-13T16:15:08;6.00;;;1.60;;
72761;SDS011;60886;55.034;73.150;2023-05-13T16:18:11;9.32;;;1.55;;
72761;SDS011;60886;55.034;73.150;2023-05-13T16:21:12;6.00;;;1.60;;
72761;SDS011;60886;55.034;73.150;2023-05-13T16:24:14;9.15;;;1.63;;
72761;SDS011;60886;55.034;73.150;2023-05-13T16:27:15;6.50;;;1.80;;
72761;SDS011;60886;55.034;73.150;2023-05-13T16:30:17;5.40;;;1.45;;
72761;SDS011;60886;55.034;73.150;2023-05-13T16:33:18;6.23;;;1.50;;
72761;SDS011;60886;55.034;73.150;2023-05-13T16:36:20;8.68;;;2.20;;
72761;SDS011;60886;55.034;73.150;2023-05-13T16:39:22;6.97;;;2.08;;
72761;SDS011;60886;55.034;73.150;2023-05-13T16:42:24;6.27;;;1.80;;
72761;SDS011;60886;55.034;73.150;2023-05-13T16:45:25;6.03;;;1.80;;
72761;SDS011;60886;55.034;73.150;2023-05-13T16:48:27;7.85;;;1.83;;
72761;SDS011;60886;55.034;73.150;2023-05-13T16:51:29;8.10;;;1.97;;
72761;SDS011;60886;55.034;73.150;2023-05-13T16:54:30;7.75;;;1.83;;
72761;SDS011;60886;55.034;73.150;2023-05-13T16:57:32;8.00;;;2.00;;
72761;SDS011;60886;55.034;73.150;2023-05-13T17:00:33;7.97;;;2.07;;
72761;SDS011;60886;55.034;73.150;2023-05-13T17:03:35;5.97;;;1.52;;
72761;SDS011;60886;55.034;73.150;2023-05-13T17:06:36;7.30;;;1.70;;
72761;SDS011;60886;55.034;73.150;2023-05-13T17:09:38;7.67;;;1.80;;
72761;SDS011;60886;55.034;73.150;2023-05-13T17:12:39;7.38;;;1.80;;
72761;SDS011;60886;55.034;73.150;2023-05-13T17:15:41;9.90;;;2.20;;
72761;SDS011;60886;55.034;73.150;2023-05-13T17:18:42;5.82;;;1.60;;
72761;SDS011;60886;55.034;73.150;2023-05-13T17:21:47;7.13;;;1.77;;
72761;SDS011;60886;55.034;73.150;2023-05-13T17:24:48;6.38;;;1.98;;
72761;SDS011;60886;55.034;73.150;2023-05-13T17:27:50;7.65;;;1.90;;
72761;SDS011;60886;55.034;73.150;2023-05-13T17:30:51;8.30;;;1.83;;
72761;SDS011;60886;55.034;73.150;2023-05-13T17:33:53;6.97;;;1.90;;
72761;SDS011;60886;55.034;73.150;2023-05-13T17:36:54;7.17;;;1.70;;
72761;SDS011;60886;55.034;73.150;2023-05-13T17:39:56;6.20;;;1.73;;
72761;SDS011;60886;55.034;73.150;2023-05-13T17:43:00;5.60;;;1.77;;
72761;SDS011;60886;55.034;73.150;2023-05-13T17:46:03;8.52;;;2.20;;
72761;SDS011;60886;55.034;73.150;2023-05-13T17:49:05;8.10;;;2.28;;
72761;SDS011;60886;55.034;73.150;2023-05-13T17:52:06;8.33;;;2.13;;
72761;SDS011;60886;55.034;73.150;2023-05-13T17:55:08;6.18;;;1.92;;
72761;SDS011;60886;55.034;73.150;2023-05-13T17:58:09;6.80;;;1.97;;
72761;SDS011;60886;55.034;73.150;2023-05-13T18:01:11;6.85;;;2.10;;
72761;SDS011;60886;55.034;73.150;2023-05-13T18:04:12;7.40;;;2.17;;